Time;durP1;ratioP1;P1;durP2;ratioP2;P2;SDS_P1;SDS_P2;PMS_P1;PMS_P2;Temp;Humidity;BMP_temperature;BMP_pressure;BME280_temperature;BME280_humidity;BME280_pressure;Samples;Min_cycle;Max_cycle;Signal;HPM_P1;HPM_P2
2020/12/27 00:01:46;;;;;;;8.30;5.32;;;;;;;;;;5046100;28;20526;-67
2020/12/27 00:04:12;;;;;;;13.20;6.93;;;;;;;;;;5044513;28;20025;-67
2020/12/27 00:06:38;;;;;;;10.07;6.25;;;;;;;;;;5044575;28;20441;-67
2020/12/27 00:09:04;;;;;;;17.00;8.65;;;;;;;;;;5045211;28;20074;-67
2020/12/27 00:11:30;;;;;;;13.18;7.03;;;;;;;;;;5043199;28;20719;-67
2020/12/27 00:13:56;;;;;;;11.25;6.45;;;;;;;;;;5044076;28;20238;-67
2020/12/27 00:16:23;;;;;;;11.20;5.97;;;;;;;;;;5045733;28;20442;-67
2020/12/27 00:18:49;;;;;;;10.93;6.63;;;;;;;;;;5045924;28;20083;-68
2020/12/27 00:21:15;;;;;;;12.60;7.30;;;;;;;;;;5046220;28;20021;-68
2020/12/27 00:23:41;;;;;;;13.35;7.25;;;;;;;;;;5045175;28;20534;-68
2020/12/27 00:26:13;;;;;;;18.77;8.93;;;;;;;;;;5043974;28;20083;-68
2020/12/27 00:28:40;;;;;;;15.73;8.13;;;;;;;;;;5045152;28;20051;-68
2020/12/27 00:31:06;;;;;;;14.50;8.15;;;;;;;;;;5045587;28;20032;-68
2020/12/27 00:33:33;;;;;;;14.63;7.80;;;;;;;;;;5044722;28;20039;-68
2020/12/27 00:35:59;;;;;;;16.00;7.65;;;;;;;;;;5043326;28;20083;-68
2020/12/27 00:38:25;;;;;;;14.10;7.50;;;;;;;;;;5045305;28;20047;-67
2020/12/27 00:40:52;;;;;;;11.77;6.40;;;;;;;;;;5044633;28;20025;-68
2020/12/27 00:43:18;;;;;;;12.55;6.32;;;;;;;;;;5046187;28;20120;-68
2020/12/27 00:45:44;;;;;;;11.10;5.30;;;;;;;;;;5045336;28;20499;-68
2020/12/27 00:48:10;;;;;;;8.13;5.03;;;;;;;;;;5045469;28;20025;-68
2020/12/27 00:50:36;;;;;;;14.43;8.23;;;;;;;;;;5042195;28;20044;-68
2020/12/27 00:53:02;;;;;;;12.43;7.28;;;;;;;;;;5044168;28;20540;-68
2020/12/27 00:55:28;;;;;;;12.25;6.07;;;;;;;;;;5044549;28;20203;-68
2020/12/27 00:57:54;;;;;;;13.82;6.85;;;;;;;;;;5045206;28;20025;-68
2020/12/27 01:00:20;;;;;;;13.93;6.82;;;;;;;;;;5044240;28;20553;-68
2020/12/27 01:02:46;;;;;;;11.85;6.22;;;;;;;;;;5045759;28;20036;-68
2020/12/27 01:05:12;;;;;;;9.80;4.75;;;;;;;;;;5045583;28;20571;-68
2020/12/27 01:07:39;;;;;;;6.97;4.47;;;;;;;;;;5048898;28;20514;-68
2020/12/27 01:10:06;;;;;;;8.52;4.78;;;;;;;;;;5048021;28;20025;-68
2020/12/27 01:12:32;;;;;;;12.70;7.00;;;;;;;;;;5048600;28;20820;-68
2020/12/27 01:14:58;;;;;;;12.70;7.32;;;;;;;;;;5046592;28;20060;-68
2020/12/27 01:17:24;;;;;;;12.90;6.07;;;;;;;;;;5045852;28;20398;-68
2020/12/27 01:19:50;;;;;;;9.90;5.25;;;;;;;;;;5049189;28;20036;-68
2020/12/27 01:22:16;;;;;;;14.88;6.30;;;;;;;;;;5047986;28;20541;-68
2020/12/27 01:24:42;;;;;;;9.80;5.32;;;;;;;;;;5047976;28;20048;-68
2020/12/27 01:27:08;;;;;;;8.85;4.88;;;;;;;;;;5048191;28;20029;-68
2020/12/27 01:29:34;;;;;;;8.93;4.82;;;;;;;;;;5047544;28;20037;-68
2020/12/27 01:32:03;;;;;;;9.98;5.47;;;;;;;;;;5047930;28;20449;-68
2020/12/27 01:34:29;;;;;;;8.63;4.75;;;;;;;;;;5047728;28;20067;-68
2020/12/27 01:36:55;;;;;;;11.30;5.63;;;;;;;;;;5047718;28;20063;-68
2020/12/27 01:39:22;;;;;;;11.60;4.95;;;;;;;;;;5047466;28;20475;-68
2020/12/27 01:41:48;;;;;;;7.60;4.63;;;;;;;;;;5048769;28;20035;-68
2020/12/27 01:44:15;;;;;;;7.47;4.72;;;;;;;;;;5047299;28;20037;-68
2020/12/27 01:46:46;;;;;;;8.27;5.07;;;;;;;;;;5048208;28;20032;-68
2020/12/27 01:49:12;;;;;;;6.72;4.45;;;;;;;;;;5048202;28;20408;-67
2020/12/27 01:51:39;;;;;;;9.50;5.57;;;;;;;;;;5048169;28;20029;-67
2020/12/27 01:54:05;;;;;;;7.00;4.72;;;;;;;;;;5046334;28;20040;-67
2020/12/27 01:56:39;;;;;;;7.38;4.85;;;;;;;;;;5048089;28;20536;-67
2020/12/27 01:59:06;;;;;;;8.68;5.05;;;;;;;;;;5047897;28;20056;-67
2020/12/27 02:01:33;;;;;;;8.07;4.68;;;;;;;;;;5045772;28;20048;-67
2020/12/27 02:04:00;;;;;;;8.00;5.20;;;;;;;;;;5047572;28;20033;-67
2020/12/27 02:06:26;;;;;;;11.48;7.38;;;;;;;;;;5047883;28;20033;-67
2020/12/27 02:08:52;;;;;;;11.65;6.50;;;;;;;;;;5047311;28;20037;-67
2020/12/27 02:11:20;;;;;;;21.02;9.95;;;;;;;;;;5046354;28;20017;-67
2020/12/27 02:13:50;;;;;;;24.45;11.13;;;;;;;;;;5047593;28;20625;-67
2020/12/27 02:16:17;;;;;;;18.85;8.93;;;;;;;;;;5046321;28;20494;-67
2020/12/27 02:18:43;;;;;;;14.15;7.32;;;;;;;;;;5044508;28;20390;-67
2020/12/27 02:21:10;;;;;;;10.45;5.70;;;;;;;;;;5047437;28;20021;-67
2020/12/27 02:23:37;;;;;;;8.63;5.35;;;;;;;;;;5044817;28;20151;-67
2020/12/27 02:26:04;;;;;;;9.23;5.32;;;;;;;;;;5046634;28;20025;-67
2020/12/27 02:28:30;;;;;;;10.45;5.53;;;;;;;;;;5047071;28;20542;-67
2020/12/27 02:30:56;;;;;;;11.85;5.32;;;;;;;;;;5047056;28;20491;-66
2020/12/27 02:33:22;;;;;;;7.20;4.20;;;;;;;;;;5046501;28;20108;-66
2020/12/27 02:35:48;;;;;;;7.93;4.47;;;;;;;;;;5047241;28;20025;-67
2020/12/27 02:38:14;;;;;;;8.07;4.28;;;;;;;;;;5045883;28;20392;-66
2020/12/27 02:40:44;;;;;;;10.73;3.85;;;;;;;;;;5047232;28;20538;-66
2020/12/27 02:43:17;;;;;;;7.72;3.83;;;;;;;;;;5046970;28;20090;-66
2020/12/27 02:45:43;;;;;;;10.25;4.35;;;;;;;;;;5046963;28;20095;-66
2020/12/27 02:48:09;;;;;;;8.50;4.93;;;;;;;;;;5046947;28;20025;-66
2020/12/27 02:50:35;;;;;;;6.95;3.80;;;;;;;;;;5046915;28;20024;-66
2020/12/27 02:53:02;;;;;;;8.00;3.90;;;;;;;;;;5046359;28;20449;-66
2020/12/27 02:55:28;;;;;;;7.43;3.80;;;;;;;;;;5046964;28;20529;-66
2020/12/27 02:57:54;;;;;;;5.28;2.95;;;;;;;;;;5045276;28;20655;-65
2020/12/27 03:00:20;;;;;;;5.78;2.95;;;;;;;;;;5047397;28;20656;-65
2020/12/27 03:02:47;;;;;;;6.10;3.35;;;;;;;;;;5046901;28;20033;-65
2020/12/27 03:05:13;;;;;;;5.63;2.80;;;;;;;;;;5046099;28;20051;-66
2020/12/27 03:07:39;;;;;;;5.70;3.08;;;;;;;;;;5046652;28;20082;-65
2020/12/27 03:10:05;;;;;;;5.10;3.10;;;;;;;;;;5045909;28;20039;-65
2020/12/27 03:12:32;;;;;;;6.18;3.15;;;;;;;;;;5046447;28;20506;-65
2020/12/27 03:14:58;;;;;;;4.72;2.78;;;;;;;;;;5046117;28;20054;-65
2020/12/27 03:17:24;;;;;;;5.82;3.50;;;;;;;;;;5045143;28;20029;-65
2020/12/27 03:19:50;;;;;;;4.93;2.85;;;;;;;;;;5046752;28;20029;-65
2020/12/27 03:22:16;;;;;;;5.32;3.15;;;;;;;;;;5046644;28;20475;-65
2020/12/27 03:24:42;;;;;;;5.53;3.58;;;;;;;;;;5046214;28;20692;-65
2020/12/27 03:27:08;;;;;;;6.50;4.03;;;;;;;;;;5046336;28;20064;-65
2020/12/27 03:29:34;;;;;;;7.43;3.83;;;;;;;;;;5046125;28;20100;-65
2020/12/27 03:32:00;;;;;;;7.82;4.07;;;;;;;;;;5045881;28;20506;-64
2020/12/27 03:34:26;;;;;;;5.00;3.30;;;;;;;;;;5046178;28;20098;-64
2020/12/27 03:36:52;;;;;;;7.40;3.80;;;;;;;;;;5044199;28;20138;-64
2020/12/27 03:39:18;;;;;;;9.48;4.25;;;;;;;;;;5045170;28;20104;-65
2020/12/27 03:41:44;;;;;;;6.38;3.28;;;;;;;;;;5045354;28;20036;-65
2020/12/27 03:44:10;;;;;;;5.70;3.95;;;;;;;;;;5045915;28;20096;-65
2020/12/27 03:46:37;;;;;;;5.93;3.00;;;;;;;;;;5046039;28;20487;-65
2020/12/27 03:49:03;;;;;;;5.65;2.67;;;;;;;;;;5045785;28;20461;-65
2020/12/27 03:51:29;;;;;;;7.18;3.25;;;;;;;;;;5045731;28;20024;-65
2020/12/27 03:53:55;;;;;;;4.35;2.55;;;;;;;;;;5045674;28;20048;-65
2020/12/27 03:56:23;;;;;;;5.05;2.45;;;;;;;;;;5046551;28;20544;-65
2020/12/27 03:58:49;;;;;;;4.97;2.55;;;;;;;;;;5046411;28;20025;-64
2020/12/27 04:01:15;;;;;;;4.15;2.65;;;;;;;;;;5045520;28;20040;-64
2020/12/27 04:03:41;;;;;;;5.65;2.92;;;;;;;;;;5044953;28;20515;-65
2020/12/27 04:06:07;;;;;;;7.60;3.58;;;;;;;;;;5045774;28;20514;-65
2020/12/27 04:08:33;;;;;;;6.78;3.38;;;;;;;;;;5046016;28;20025;-65
2020/12/27 04:10:59;;;;;;;5.85;3.35;;;;;;;;;;5045541;28;20100;-65
2020/12/27 04:13:26;;;;;;;4.13;2.88;;;;;;;;;;5045688;28;20475;-66
2020/12/27 04:15:52;;;;;;;6.38;3.30;;;;;;;;;;5045285;28;20025;-65
2020/12/27 04:18:18;;;;;;;9.45;3.67;;;;;;;;;;5046562;28;20107;-65
2020/12/27 04:20:44;;;;;;;8.50;4.55;;;;;;;;;;5045462;28;20018;-65
2020/12/27 04:23:10;;;;;;;7.43;4.47;;;;;;;;;;5045217;28;20025;-65
2020/12/27 04:25:36;;;;;;;7.10;4.35;;;;;;;;;;5045011;28;20029;-66
2020/12/27 04:28:02;;;;;;;6.70;3.95;;;;;;;;;;5044042;28;20487;-66
2020/12/27 04:30:29;;;;;;;8.07;3.78;;;;;;;;;;5044295;28;20029;-66
2020/12/27 04:32:55;;;;;;;7.57;4.40;;;;;;;;;;5045624;28;20467;-66
2020/12/27 04:35:21;;;;;;;6.10;3.97;;;;;;;;;;5046150;28;20032;-66
2020/12/27 04:37:47;;;;;;;7.05;4.43;;;;;;;;;;5045950;28;20048;-66
2020/12/27 04:40:13;;;;;;;8.50;4.70;;;;;;;;;;5045180;28;20028;-66
2020/12/27 04:42:39;;;;;;;9.15;5.20;;;;;;;;;;5049597;28;20067;-66
2020/12/27 04:45:05;;;;;;;8.43;5.15;;;;;;;;;;5049060;28;20025;-67
2020/12/27 04:47:31;;;;;;;10.77;4.88;;;;;;;;;;5049559;28;20025;-67
2020/12/27 04:49:57;;;;;;;14.48;7.60;;;;;;;;;;5044464;28;20120;-67
2020/12/27 04:52:24;;;;;;;14.25;7.32;;;;;;;;;;5048695;28;20402;-67
2020/12/27 04:54:50;;;;;;;15.70;7.82;;;;;;;;;;5049636;28;20021;-67
2020/12/27 04:57:18;;;;;;;15.60;7.53;;;;;;;;;;5049731;28;20095;-67
2020/12/27 04:59:45;;;;;;;15.00;7.68;;;;;;;;;;5048719;28;20049;-67
2020/12/27 05:02:11;;;;;;;16.08;7.28;;;;;;;;;;5047662;28;20094;-67
2020/12/27 05:04:38;;;;;;;13.32;7.25;;;;;;;;;;5047987;28;20033;-68
2020/12/27 05:07:04;;;;;;;13.50;7.93;;;;;;;;;;5048741;28;20059;-68
2020/12/27 05:09:30;;;;;;;11.88;7.30;;;;;;;;;;5048448;28;20025;-68
2020/12/27 05:11:57;;;;;;;15.05;7.13;;;;;;;;;;5048572;28;20036;-68
2020/12/27 05:14:27;;;;;;;11.75;6.50;;;;;;;;;;5047397;28;20029;-68
2020/12/27 05:16:53;;;;;;;12.77;7.50;;;;;;;;;;5048294;28;20055;-68
2020/12/27 05:19:20;;;;;;;15.55;7.20;;;;;;;;;;5049181;28;20059;-68
2020/12/27 05:21:46;;;;;;;13.57;7.85;;;;;;;;;;5047951;28;20037;-69
2020/12/27 05:24:19;;;;;;;15.65;7.90;;;;;;;;;;5048644;28;20021;-68
2020/12/27 05:26:46;;;;;;;15.52;8.05;;;;;;;;;;5048204;28;20046;-69
2020/12/27 05:29:29;;;;;;;17.48;8.63;;;;;;;;;;5048572;28;20017;-69
2020/12/27 05:31:55;;;;;;;18.45;9.00;;;;;;;;;;5048237;28;20063;-69
2020/12/27 05:34:21;;;;;;;17.45;9.02;;;;;;;;;;5047325;28;20427;-69
2020/12/27 05:36:47;;;;;;;16.70;8.45;;;;;;;;;;5048638;28;20475;-69
2020/12/27 05:39:13;;;;;;;12.70;7.70;;;;;;;;;;5048265;28;20016;-69
2020/12/27 05:41:39;;;;;;;12.32;6.82;;;;;;;;;;5048312;28;20136;-69
2020/12/27 05:44:05;;;;;;;13.23;6.60;;;;;;;;;;5048144;28;20480;-68
2020/12/27 05:46:32;;;;;;;15.60;6.63;;;;;;;;;;5048506;28;20395;-68
2020/12/27 05:48:58;;;;;;;12.68;6.80;;;;;;;;;;5047848;28;20036;-68
2020/12/27 05:51:25;;;;;;;9.38;6.03;;;;;;;;;;5047826;28;20036;-67
2020/12/27 05:53:52;;;;;;;11.95;6.28;;;;;;;;;;5048559;28;20025;-67
2020/12/27 05:56:19;;;;;;;12.13;6.57;;;;;;;;;;5048581;28;20028;-67
2020/12/27 05:58:45;;;;;;;10.23;5.78;;;;;;;;;;5046579;28;20033;-67
2020/12/27 06:01:19;;;;;;;12.55;6.93;;;;;;;;;;5047081;28;20039;-65
2020/12/27 06:03:59;;;;;;;11.20;6.05;;;;;;;;;;5047578;28;20021;-66
2020/12/27 06:06:44;;;;;;;12.02;6.25;;;;;;;;;;5047698;28;20682;-65
2020/12/27 06:09:15;;;;;;;10.40;5.65;;;;;;;;;;5047568;28;20025;-64
2020/12/27 06:11:48;;;;;;;14.32;6.72;;;;;;;;;;5047077;28;20036;-64
2020/12/27 06:14:17;;;;;;;14.90;7.25;;;;;;;;;;5047804;28;20391;-64
2020/12/27 06:16:46;;;;;;;11.20;6.53;;;;;;;;;;5047148;28;20125;-63
2020/12/27 06:19:18;;;;;;;12.35;6.47;;;;;;;;;;5047376;28;20564;-63
2020/12/27 06:21:53;;;;;;;10.90;6.40;;;;;;;;;;5045210;28;20071;-63
2020/12/27 06:24:22;;;;;;;10.68;6.95;;;;;;;;;;5048208;28;20115;-63
2020/12/27 06:26:49;;;;;;;9.35;6.18;;;;;;;;;;5047784;28;20032;-62
2020/12/27 06:29:15;;;;;;;10.90;6.35;;;;;;;;;;5047433;28;20174;-62
2020/12/27 06:31:42;;;;;;;13.48;6.43;;;;;;;;;;5047030;28;20716;-62
2020/12/27 06:34:08;;;;;;;9.98;6.28;;;;;;;;;;5046121;28;20032;-62
2020/12/27 06:36:35;;;;;;;13.23;5.97;;;;;;;;;;5046996;28;20033;-62
2020/12/27 06:39:21;;;;;;;10.23;5.75;;;;;;;;;;5046701;28;20045;-62
2020/12/27 06:42:03;;;;;;;11.50;5.78;;;;;;;;;;5047441;28;20032;-61
2020/12/27 06:44:40;;;;;;;12.27;6.43;;;;;;;;;;5047153;28;20108;-62
2020/12/27 06:47:07;;;;;;;12.90;6.60;;;;;;;;;;5045345;28;20032;-61
2020/12/27 06:49:33;;;;;;;10.82;6.20;;;;;;;;;;5047197;28;20103;-61
2020/12/27 06:52:19;;;;;;;10.13;5.47;;;;;;;;;;5047358;28;20029;-61
2020/12/27 06:54:47;;;;;;;7.95;4.85;;;;;;;;;;5047525;28;20025;-60
2020/12/27 06:57:33;;;;;;;10.05;5.55;;;;;;;;;;5045950;28;20021;-60
2020/12/27 07:00:17;;;;;;;8.20;4.35;;;;;;;;;;5046379;28;20070;-60
2020/12/27 07:02:44;;;;;;;8.48;4.63;;;;;;;;;;5046248;28;20493;-60
2020/12/27 07:05:10;;;;;;;9.55;4.70;;;;;;;;;;5046441;28;20017;-60
2020/12/27 07:07:46;;;;;;;9.00;4.85;;;;;;;;;;5046699;28;20471;-60
2020/12/27 07:10:15;;;;;;;8.07;4.35;;;;;;;;;;5046248;28;20522;-60
2020/12/27 07:12:42;;;;;;;6.63;4.25;;;;;;;;;;5044403;28;20029;-60
2020/12/27 07:15:11;;;;;;;8.45;5.07;;;;;;;;;;5046352;28;20067;-60
2020/12/27 07:17:37;;;;;;;10.45;6.25;;;;;;;;;;5044635;28;20557;-60
2020/12/27 07:20:15;;;;;;;11.40;5.80;;;;;;;;;;5045597;28;20575;-60
2020/12/27 07:22:42;;;;;;;12.45;6.63;;;;;;;;;;5045315;28;20078;-60
2020/12/27 07:25:12;;;;;;;14.90;7.43;;;;;;;;;;5046154;28;20045;-59
2020/12/27 07:27:40;;;;;;;13.77;7.18;;;;;;;;;;5045840;28;20032;-59
2020/12/27 07:30:06;;;;;;;11.40;6.55;;;;;;;;;;5045506;28;20025;-60
2020/12/27 07:32:37;;;;;;;11.60;5.95;;;;;;;;;;5045588;28;20083;-60
2020/12/27 07:35:08;;;;;;;11.63;6.53;;;;;;;;;;5045707;28;20021;-59
2020/12/27 07:37:34;;;;;;;10.35;4.93;;;;;;;;;;5044399;28;20025;-59
2020/12/27 07:40:00;;;;;;;10.82;5.57;;;;;;;;;;5045614;28;20936;-60
2020/12/27 07:42:30;;;;;;;9.68;5.47;;;;;;;;;;5046613;28;20017;-60
2020/12/27 07:44:57;;;;;;;12.50;5.82;;;;;;;;;;5046348;28;20106;-59
2020/12/27 07:47:23;;;;;;;9.77;5.03;;;;;;;;;;5045897;28;20036;-59
2020/12/27 07:50:08;;;;;;;12.23;6.63;;;;;;;;;;5045636;28;20037;-59
2020/12/27 07:52:34;;;;;;;;;;;;;;;;;;5045589;28;20072;-60
2020/12/27 07:55:00;;;;;;;15.77;8.48;;;;;;;;;;5045184;28;20394;-59
2020/12/27 07:57:26;;;;;;;12.82;6.90;;;;;;;;;;5046502;28;20021;-59
2020/12/27 08:00:12;;;;;;;12.38;6.75;;;;;;;;;;5045658;28;20021;-59
2020/12/27 08:02:42;;;;;;;11.65;6.85;;;;;;;;;;5044123;28;20596;-59
2020/12/27 08:05:09;;;;;;;11.68;6.45;;;;;;;;;;5045603;28;20047;-59
2020/12/27 08:07:35;;;;;;;11.43;5.72;;;;;;;;;;5045573;28;20025;-59
2020/12/27 08:10:12;;;;;;;12.73;5.90;;;;;;;;;;5044611;28;20552;-59
2020/12/27 08:12:38;;;;;;;13.52;5.78;;;;;;;;;;5045231;28;20017;-59
2020/12/27 08:15:08;;;;;;;9.00;5.47;;;;;;;;;;5044933;28;20029;-59
2020/12/27 08:17:34;;;;;;;10.52;6.22;;;;;;;;;;5049169;28;20029;-59
2020/12/27 08:20:01;;;;;;;14.20;7.22;;;;;;;;;;5049528;28;20395;-59
2020/12/27 08:22:27;;;;;;;24.08;12.00;;;;;;;;;;5048709;28;20436;-60
2020/12/27 08:24:53;;;;;;;20.25;10.60;;;;;;;;;;5049931;28;20087;-60
2020/12/27 08:27:19;;;;;;;15.95;8.73;;;;;;;;;;5049611;28;20029;-59
2020/12/27 08:29:45;;;;;;;15.00;6.95;;;;;;;;;;5049129;28;20036;-59
2020/12/27 08:32:11;;;;;;;11.98;6.43;;;;;;;;;;5048778;28;20032;-59
2020/12/27 08:34:37;;;;;;;11.57;6.70;;;;;;;;;;5049129;28;20063;-59
2020/12/27 08:37:03;;;;;;;9.45;5.65;;;;;;;;;;5047858;28;20111;-59
2020/12/27 08:39:32;;;;;;;8.85;5.25;;;;;;;;;;5049275;28;20435;-59
2020/12/27 08:42:01;;;;;;;9.98;5.63;;;;;;;;;;5049075;28;20025;-59
2020/12/27 08:44:34;;;;;;;9.15;5.03;;;;;;;;;;5049243;28;20028;-59
2020/12/27 08:47:02;;;;;;;11.25;6.75;;;;;;;;;;5049438;28;20074;-59
2020/12/27 08:49:34;;;;;;;15.68;8.27;;;;;;;;;;5049154;28;20136;-59
2020/12/27 08:52:13;;;;;;;11.15;5.78;;;;;;;;;;5047593;28;20517;-59
2020/12/27 08:54:39;;;;;;;12.18;6.00;;;;;;;;;;5049092;28;20029;-60
2020/12/27 08:57:07;;;;;;;11.70;5.53;;;;;;;;;;5048705;28;20244;-59
2020/12/27 08:59:33;;;;;;;7.85;4.25;;;;;;;;;;5048389;28;20390;-60
2020/12/27 09:02:09;;;;;;;8.82;4.93;;;;;;;;;;5048518;28;20406;-59
2020/12/27 09:04:35;;;;;;;12.45;6.40;;;;;;;;;;5048872;28;20134;-60
2020/12/27 09:07:02;;;;;;;13.43;7.18;;;;;;;;;;5048242;28;20059;-60
2020/12/27 09:09:28;;;;;;;11.40;6.97;;;;;;;;;;5048216;28;20021;-60
2020/12/27 09:11:54;;;;;;;10.25;5.47;;;;;;;;;;5047046;28;20029;-60
2020/12/27 09:14:34;;;;;;;8.77;4.65;;;;;;;;;;5045582;28;20037;-60
2020/12/27 09:17:04;;;;;;;8.15;4.78;;;;;;;;;;5049302;28;20484;-60
2020/12/27 09:19:33;;;;;;;10.82;5.32;;;;;;;;;;5048599;28;20039;-61
2020/12/27 09:22:01;;;;;;;12.27;6.47;;;;;;;;;;5048767;28;20023;-61
2020/12/27 09:24:27;;;;;;;12.45;6.97;;;;;;;;;;5039064;28;20116;-61
2020/12/27 09:26:53;;;;;;;12.85;6.63;;;;;;;;;;5046907;28;20029;-61
2020/12/27 09:29:19;;;;;;;12.00;7.63;;;;;;;;;;5048670;28;20099;-61
2020/12/27 09:31:46;;;;;;;11.70;7.15;;;;;;;;;;5048597;28;20116;-61
2020/12/27 09:34:12;;;;;;;15.30;7.90;;;;;;;;;;5046374;28;20052;-61
2020/12/27 09:36:40;;;;;;;15.13;7.35;;;;;;;;;;5045373;28;20021;-62
2020/12/27 09:39:06;;;;;;;14.25;7.35;;;;;;;;;;5040103;28;20025;-63
2020/12/27 09:41:37;;;;;;;13.43;7.05;;;;;;;;;;5045342;28;20037;-63
2020/12/27 09:44:03;;;;;;;15.95;6.95;;;;;;;;;;5046653;28;20086;-63
2020/12/27 09:46:44;;;;;;;14.57;8.23;;;;;;;;;;5044215;28;20116;-63
2020/12/27 09:49:23;;;;;;;15.93;7.50;;;;;;;;;;5046045;28;20033;-64
2020/12/27 09:52:02;;;;;;;11.32;6.00;;;;;;;;;;5045142;28;20032;-65
2020/12/27 09:54:32;;;;;;;12.52;6.40;;;;;;;;;;5047016;28;20073;-64
2020/12/27 09:56:59;;;;;;;12.40;6.20;;;;;;;;;;5046396;28;20043;-64
2020/12/27 09:59:25;;;;;;;11.95;6.70;;;;;;;;;;5029132;28;20430;-64
2020/12/27 10:01:51;;;;;;;13.15;6.32;;;;;;;;;;5042720;28;20029;-61
2020/12/27 10:04:18;;;;;;;11.52;5.90;;;;;;;;;;5043382;28;20025;-62
2020/12/27 10:06:44;;;;;;;9.60;5.50;;;;;;;;;;5046072;28;20076;-63
2020/12/27 10:09:10;;;;;;;10.77;5.40;;;;;;;;;;5043878;28;20039;-65
2020/12/27 10:11:37;;;;;;;7.32;4.40;;;;;;;;;;5046360;28;20029;-66
2020/12/27 10:14:03;;;;;;;7.60;4.40;;;;;;;;;;5046321;28;20100;-65
2020/12/27 10:16:29;;;;;;;8.82;4.88;;;;;;;;;;5046280;28;20227;-66
2020/12/27 10:18:55;;;;;;;8.57;4.78;;;;;;;;;;5045761;28;20556;-67
2020/12/27 10:21:21;;;;;;;7.47;4.45;;;;;;;;;;5043840;28;20025;-73
2020/12/27 10:23:48;;;;;;;3.75;2.67;;;;;;;;;;5041937;28;20491;-66
2020/12/27 10:26:15;;;;;;;5.07;2.38;;;;;;;;;;5038040;28;20058;-75
2020/12/27 10:28:42;;;;;;;5.15;2.30;;;;;;;;;;5045200;28;20059;-73
2020/12/27 10:31:09;;;;;;;3.63;2.60;;;;;;;;;;5045799;28;20056;-71
2020/12/27 10:33:35;;;;;;;3.83;2.20;;;;;;;;;;5044693;28;20021;-72
2020/12/27 10:36:02;;;;;;;7.97;3.53;;;;;;;;;;5045036;28;20612;-75
2020/12/27 10:38:28;;;;;;;4.50;2.65;;;;;;;;;;5041655;28;20017;-70
2020/12/27 10:40:55;;;;;;;4.43;2.65;;;;;;;;;;5042688;28;20025;-70
2020/12/27 10:43:22;;;;;;;4.82;2.50;;;;;;;;;;5041683;28;20028;-65
2020/12/27 10:45:48;;;;;;;5.90;2.88;;;;;;;;;;5042960;28;20497;-63
2020/12/27 10:48:14;;;;;;;3.22;2.30;;;;;;;;;;5046671;28;20029;-64
2020/12/27 10:50:41;;;;;;;4.00;2.03;;;;;;;;;;5047470;28;20029;-66
2020/12/27 10:53:07;;;;;;;5.07;3.10;;;;;;;;;;5047614;28;20033;-70
2020/12/27 10:55:33;;;;;;;5.78;2.95;;;;;;;;;;5044077;28;20035;-66
2020/12/27 10:57:59;;;;;;;6.95;3.30;;;;;;;;;;5046914;28;20380;-67
2020/12/27 11:00:25;;;;;;;5.75;3.03;;;;;;;;;;5045499;28;20026;-67
2020/12/27 11:02:51;;;;;;;6.55;3.17;;;;;;;;;;5046956;28;20546;-70
2020/12/27 11:05:17;;;;;;;5.20;2.75;;;;;;;;;;5046456;28;20064;-69
2020/12/27 11:07:44;;;;;;;5.20;2.65;;;;;;;;;;5045347;28;20029;-69
2020/12/27 11:10:10;;;;;;;3.88;2.53;;;;;;;;;;5046346;28;20033;-69
2020/12/27 11:12:36;;;;;;;4.40;2.78;;;;;;;;;;5041739;28;20529;-66
2020/12/27 11:15:02;;;;;;;6.25;3.35;;;;;;;;;;5037960;28;20372;-67
2020/12/27 11:17:28;;;;;;;4.70;2.80;;;;;;;;;;5033080;28;20028;-67
2020/12/27 11:19:54;;;;;;;6.45;3.25;;;;;;;;;;5045253;28;20668;-67
2020/12/27 11:22:20;;;;;;;5.20;2.78;;;;;;;;;;5045633;28;20025;-66
2020/12/27 11:24:46;;;;;;;4.32;2.70;;;;;;;;;;5046428;28;20029;-66
2020/12/27 11:27:12;;;;;;;5.90;3.53;;;;;;;;;;5046922;28;20052;-64
2020/12/27 11:29:38;;;;;;;3.67;2.40;;;;;;;;;;5044508;28;20087;-65
2020/12/27 11:32:04;;;;;;;5.47;3.20;;;;;;;;;;5044794;28;20036;-64
2020/12/27 11:34:30;;;;;;;6.25;3.20;;;;;;;;;;5045034;28;20056;-65
2020/12/27 11:36:56;;;;;;;7.53;2.63;;;;;;;;;;5043895;28;20025;-64
2020/12/27 11:39:22;;;;;;;5.25;3.05;;;;;;;;;;5046882;28;20103;-64
2020/12/27 11:41:48;;;;;;;4.72;2.42;;;;;;;;;;5046181;28;20483;-63
2020/12/27 11:44:15;;;;;;;3.78;2.40;;;;;;;;;;5046979;28;20028;-66
2020/12/27 11:46:41;;;;;;;3.70;2.13;;;;;;;;;;5046947;28;20029;-65
2020/12/27 11:49:07;;;;;;;2.90;2.00;;;;;;;;;;5046141;28;20033;-65
2020/12/27 11:51:34;;;;;;;4.18;2.50;;;;;;;;;;5046093;28;20372;-66
2020/12/27 11:54:00;;;;;;;5.05;2.30;;;;;;;;;;5046202;28;20040;-65
2020/12/27 11:56:26;;;;;;;3.28;2.10;;;;;;;;;;5046611;28;20029;-68
2020/12/27 11:58:52;;;;;;;5.50;2.25;;;;;;;;;;5046000;28;20372;-66
2020/12/27 12:01:18;;;;;;;4.10;2.05;;;;;;;;;;5046673;28;20033;-69
2020/12/27 12:03:44;;;;;;;12.65;2.83;;;;;;;;;;5044678;28;20029;-65
2020/12/27 12:06:14;;;;;;;8.52;2.42;;;;;;;;;;5046215;28;20021;-66
2020/12/27 12:08:44;;;;;;;8.00;3.20;;;;;;;;;;5044725;28;20039;-67
2020/12/27 12:11:10;;;;;;;6.68;3.45;;;;;;;;;;5046081;28;20029;-67
2020/12/27 12:13:36;;;;;;;5.80;2.40;;;;;;;;;;5045818;28;20047;-67
2020/12/27 12:16:02;;;;;;;5.53;2.40;;;;;;;;;;5046110;28;20033;-68
2020/12/27 12:18:28;;;;;;;3.38;1.88;;;;;;;;;;5044233;28;20044;-66
2020/12/27 12:20:55;;;;;;;6.53;2.65;;;;;;;;;;5046271;28;20441;-66
2020/12/27 12:23:21;;;;;;;4.53;2.15;;;;;;;;;;5046207;28;20426;-67
2020/12/27 12:25:47;;;;;;;6.03;2.30;;;;;;;;;;5045549;28;20575;-67
2020/12/27 12:28:14;;;;;;;3.55;2.13;;;;;;;;;;5046352;28;20029;-67
2020/12/27 12:30:41;;;;;;;4.93;2.35;;;;;;;;;;5044958;28;20049;-68
2020/12/27 12:33:07;;;;;;;4.55;2.05;;;;;;;;;;5047183;28;20036;-66
2020/12/27 12:35:33;;;;;;;7.40;3.63;;;;;;;;;;5042067;28;20498;-69
2020/12/27 12:38:00;;;;;;;4.18;2.20;;;;;;;;;;5044817;28;20470;-68
2020/12/27 12:40:27;;;;;;;10.63;3.20;;;;;;;;;;5046251;28;20029;-67
2020/12/27 12:42:53;;;;;;;9.18;3.35;;;;;;;;;;5046147;28;20036;-66
2020/12/27 12:45:19;;;;;;;6.07;2.35;;;;;;;;;;5046122;28;20395;-69
2020/12/27 12:47:45;;;;;;;6.05;2.70;;;;;;;;;;5046151;28;20857;-65
2020/12/27 12:50:11;;;;;;;5.05;2.47;;;;;;;;;;5046523;28;20032;-68
2020/12/27 12:52:38;;;;;;;4.95;2.28;;;;;;;;;;5047044;28;20852;-69
2020/12/27 12:55:05;;;;;;;6.50;2.47;;;;;;;;;;5045745;28;20021;-68
2020/12/27 12:57:32;;;;;;;9.15;3.08;;;;;;;;;;5044092;28;20041;-69
2020/12/27 12:59:58;;;;;;;6.20;2.40;;;;;;;;;;5045425;28;20509;-68
2020/12/27 13:02:24;;;;;;;6.70;2.55;;;;;;;;;;5046734;28;20398;-67
2020/12/27 13:04:50;;;;;;;4.47;2.30;;;;;;;;;;5048032;28;20056;-66
2020/12/27 13:07:17;;;;;;;6.35;2.00;;;;;;;;;;5049337;28;20483;-68
2020/12/27 13:09:43;;;;;;;3.28;1.80;;;;;;;;;;5047504;28;20116;-66
2020/12/27 13:12:09;;;;;;;4.35;2.13;;;;;;;;;;5047282;28;20446;-66
2020/12/27 13:14:35;;;;;;;2.88;1.58;;;;;;;;;;5048058;28;20082;-66
2020/12/27 13:17:01;;;;;;;7.30;3.00;;;;;;;;;;5046528;28;20502;-65
2020/12/27 13:19:27;;;;;;;4.38;2.38;;;;;;;;;;5045887;28;20526;-66
2020/12/27 13:21:53;;;;;;;4.13;2.00;;;;;;;;;;5047054;28;20561;-67
2020/12/27 13:24:20;;;;;;;2.90;1.58;;;;;;;;;;5046614;28;20021;-65
2020/12/27 13:26:46;;;;;;;4.20;2.15;;;;;;;;;;5046262;28;20492;-66
2020/12/27 13:29:13;;;;;;;2.22;1.70;;;;;;;;;;5046063;28;20024;-67
2020/12/27 13:31:39;;;;;;;3.25;1.60;;;;;;;;;;5048252;28;20040;-66
2020/12/27 13:34:05;;;;;;;3.92;1.95;;;;;;;;;;5047265;28;20086;-65
2020/12/27 13:36:31;;;;;;;3.50;2.05;;;;;;;;;;5043282;28;20131;-67
2020/12/27 13:38:58;;;;;;;3.92;1.90;;;;;;;;;;5045778;28;20132;-65
2020/12/27 13:41:24;;;;;;;4.72;1.83;;;;;;;;;;5047147;28;20036;-65
2020/12/27 13:43:50;;;;;;;6.75;2.60;;;;;;;;;;5046751;28;20023;-68
2020/12/27 13:46:17;;;;;;;3.95;1.90;;;;;;;;;;5047072;28;20122;-65
2020/12/27 13:48:50;;;;;;;4.90;1.83;;;;;;;;;;5046698;28;20503;-67
2020/12/27 13:51:22;;;;;;;6.07;2.17;;;;;;;;;;5043967;28;20033;-65
2020/12/27 13:53:48;;;;;;;5.07;2.00;;;;;;;;;;5045846;28;20029;-65
2020/12/27 13:56:22;;;;;;;4.72;2.17;;;;;;;;;;5045298;28;20533;-67
2020/12/27 13:58:48;;;;;;;3.45;1.77;;;;;;;;;;5046124;28;20071;-66
2020/12/27 14:01:14;;;;;;;4.72;2.15;;;;;;;;;;5045447;28;20037;-66
2020/12/27 14:03:40;;;;;;;4.68;2.08;;;;;;;;;;5045026;28;20025;-64
2020/12/27 14:06:06;;;;;;;4.63;1.75;;;;;;;;;;5048189;28;20430;-65
2020/12/27 14:08:33;;;;;;;7.25;2.22;;;;;;;;;;5046115;28;20053;-66
2020/12/27 14:11:00;;;;;;;3.45;1.73;;;;;;;;;;5044603;28;20025;-67
2020/12/27 14:13:27;;;;;;;4.95;1.92;;;;;;;;;;5044512;28;20446;-66
2020/12/27 14:15:53;;;;;;;3.40;1.50;;;;;;;;;;5034110;28;20411;-67
2020/12/27 14:18:20;;;;;;;5.75;1.90;;;;;;;;;;5046236;28;20021;-67
2020/12/27 14:20:46;;;;;;;4.13;1.83;;;;;;;;;;5045676;28;20033;-70
2020/12/27 14:23:12;;;;;;;4.38;1.98;;;;;;;;;;5045290;28;20029;-66
2020/12/27 14:25:38;;;;;;;3.25;1.70;;;;;;;;;;5046371;28;20044;-65
2020/12/27 14:28:05;;;;;;;2.78;1.70;;;;;;;;;;5045926;28;20025;-66
2020/12/27 14:30:31;;;;;;;2.45;1.50;;;;;;;;;;5045929;28;20556;-67
2020/12/27 14:32:57;;;;;;;5.55;1.52;;;;;;;;;;5045943;28;20052;-65
2020/12/27 14:35:23;;;;;;;3.63;1.55;;;;;;;;;;5046165;28;20120;-64
2020/12/27 14:37:50;;;;;;;3.22;1.92;;;;;;;;;;5043979;28;20124;-64
2020/12/27 14:40:16;;;;;;;5.68;1.50;;;;;;;;;;5045068;28;20040;-66